createdAt,value
2019-02-16T06:36:42.692Z,710
2019-02-16T06:37:10.964Z,737
2019-02-16T06:45:15.593Z,1220
2019-02-16T06:45:47.405Z,1250
2019-02-16T06:46:16.764Z,1280
2019-02-16T06:46:48.481Z,1307
2019-02-16T06:52:30.873Z,1627
2019-02-16T06:52:54.332Z,1653
2019-02-16T06:53:23.515Z,1683
2019-02-16T06:53:55.967Z,1710
2019-02-16T06:54:31.830Z,1737
2019-02-16T06:54:56.325Z,1763
2019-02-16T06:55:25.428Z,1793
2019-02-16T06:55:57.314Z,1820
2019-02-16T06:56:26.396Z,1850
2019-02-16T06:56:58.233Z,1877
2019-02-16T06:57:27.380Z,1903
2019-02-16T06:57:59.251Z,1927
2019-02-16T06:58:28.382Z,1953
2019-02-16T06:59:00.259Z,1983
2019-02-16T06:59:29.379Z,2010
2019-02-16T07:00:01.350Z,2037
2019-02-16T07:00:30.327Z,2060
2019-02-16T07:01:02.198Z,2087
2019-02-16T07:01:33.137Z,2113
2019-02-16T07:02:03.231Z,2133
2019-02-16T07:02:32.335Z,2160
2019-02-16T07:03:04.296Z,2187
2019-02-16T07:03:33.340Z,2210
2019-02-16T07:04:05.190Z,2237
2019-02-16T07:04:34.319Z,2260
2019-02-16T07:05:06.218Z,2283
2019-02-16T07:05:35.345Z,2310
2019-02-16T07:06:07.166Z,2333
2019-02-16T07:06:36.614Z,2353
2019-02-16T07:07:08.213Z,2380
2019-02-16T07:07:37.277Z,2403
2019-02-16T07:08:09.207Z,2427
2019-02-16T07:08:38.275Z,2450
2019-02-16T07:09:10.174Z,2473
2019-02-16T07:09:39.282Z,2497
2019-02-16T07:10:11.092Z,2520
2019-02-16T07:10:40.193Z,2540
2019-02-16T07:11:12.118Z,2560
2019-02-16T07:11:41.181Z,2583
2019-02-16T07:12:13.105Z,2607
2019-02-16T07:12:42.206Z,2627
2019-02-16T07:13:14.054Z,2650
2019-02-16T07:13:43.199Z,2670
2019-02-16T07:14:15.117Z,2697
2019-02-16T07:14:44.175Z,2717
2019-02-16T07:15:16.079Z,2740
2019-02-16T07:15:45.224Z,2760
2019-02-16T07:16:17.035Z,2777
2019-02-16T07:16:46.173Z,2793
2019-02-16T07:17:18.067Z,2813
2019-02-16T07:17:47.132Z,2833
2019-02-16T07:18:19.108Z,2857
2019-02-16T07:18:48.156Z,2877
2019-02-16T07:19:20.039Z,2897
2019-02-16T07:19:49.137Z,2917
2019-02-16T07:20:21.074Z,2940
2019-02-16T07:20:50.123Z,2957
2019-02-16T07:21:22.031Z,2980
2019-02-16T07:21:51.131Z,2993
2019-02-16T07:22:23.002Z,3010
2019-02-16T07:22:52.118Z,3027
2019-02-16T07:23:24.014Z,3050
2019-02-16T07:23:53.075Z,3063
2019-02-16T07:24:25.009Z,3083
2019-02-16T07:24:54.114Z,3100
2019-02-16T07:25:26.110Z,3120
2019-02-16T07:25:55.353Z,3137
2019-02-16T07:26:26.201Z,3150
2019-02-16T07:26:55.424Z,3170
2019-02-16T07:27:26.341Z,3190
2019-02-16T07:27:55.494Z,3207
2019-02-16T07:28:26.355Z,3220
2019-02-16T07:28:55.563Z,3240
2019-02-16T07:29:26.402Z,3253
2019-02-16T07:29:55.628Z,3273
2019-02-16T07:30:26.463Z,3297
2019-02-16T07:30:55.649Z,3303
2019-02-16T07:31:26.560Z,3323
2019-02-16T07:31:55.856Z,3340
2019-02-16T07:32:27.667Z,3353
2019-02-16T07:32:56.669Z,3373
2019-02-16T07:33:27.584Z,3387
2019-02-16T07:33:56.726Z,3403
2019-02-16T07:34:27.592Z,3413
2019-02-16T07:34:56.805Z,3423
2019-02-16T07:35:27.662Z,3440
2019-02-16T07:35:56.845Z,3457
2019-02-16T07:36:27.724Z,3470
2019-02-16T07:36:56.870Z,3483
2019-02-16T07:37:27.797Z,3500
2019-02-16T07:37:56.973Z,3513
2019-02-16T07:38:28.443Z,3527
2019-02-16T07:38:57.018Z,3627
2019-02-16T07:39:28.175Z,4003
2019-02-16T07:39:57.099Z,4483
2019-02-16T07:40:27.942Z,4703
2019-02-16T07:40:57.130Z,4673
2019-02-16T07:41:28.047Z,4690
2019-02-16T07:41:57.441Z,4677
2019-02-16T07:42:28.103Z,5010
2019-02-16T07:42:57.287Z,5000
2019-02-16T07:43:57.312Z,5117
2019-02-16T07:44:28.182Z,4967
2019-02-16T07:44:57.364Z,5583
2019-02-16T07:45:28.247Z,6400
2019-02-16T07:45:57.380Z,7433
2019-02-16T07:46:28.308Z,8193
2019-02-16T07:46:57.489Z,8430
2019-02-16T07:47:28.334Z,8257
2019-02-16T07:47:57.612Z,7730
2019-02-16T07:48:28.487Z,7087
2019-02-16T07:48:57.616Z,6380
2019-02-16T07:49:28.502Z,5533
2019-02-16T07:49:57.685Z,5147
2019-02-16T07:50:28.566Z,5467
2019-02-16T07:50:57.731Z,5943
2019-02-16T07:51:28.617Z,6680
2019-02-16T07:51:57.756Z,7067
2019-02-16T07:52:28.642Z,7733
2019-02-16T07:52:57.886Z,7927
2019-02-16T07:53:31.248Z,8103
2019-02-16T07:53:57.875Z,8450
2019-02-16T07:54:28.755Z,8697
2019-02-16T07:54:57.974Z,8527
2019-02-16T07:55:28.833Z,8117
2019-02-16T07:55:59.242Z,7567
2019-02-16T07:56:28.883Z,7333
2019-02-16T07:56:58.093Z,7533
2019-02-16T07:57:28.952Z,7627
2019-02-16T07:57:58.160Z,7347
2019-02-16T07:58:29.005Z,6870
2019-02-16T07:58:58.224Z,6170
2019-02-16T07:59:29.107Z,5420
2019-02-16T07:59:58.254Z,5307
2019-02-16T08:00:29.154Z,5717
2019-02-16T08:00:58.336Z,6257
2019-02-16T08:01:29.240Z,7017
2019-02-16T08:01:58.363Z,7720
2019-02-16T08:02:29.277Z,8423
2019-02-16T08:02:58.444Z,9800
2019-02-16T08:03:29.361Z,11087
2019-02-16T08:03:58.530Z,12010
2019-02-16T08:04:29.414Z,11707
2019-02-16T08:04:58.625Z,10240
2019-02-16T08:05:29.523Z,8730
2019-02-16T08:05:58.629Z,8423
2019-02-16T08:06:29.534Z,9073
2019-02-16T08:06:58.682Z,11330
2019-02-16T08:07:29.581Z,12707
2019-02-16T08:07:58.760Z,13330
2019-02-16T08:08:29.648Z,13500
2019-02-16T08:08:58.804Z,11987
2019-02-16T08:09:29.704Z,11210
2019-02-16T08:09:58.870Z,11630
2019-02-16T08:10:29.741Z,12507
2019-02-16T08:10:58.922Z,13123
2019-02-16T08:11:29.828Z,12273
2019-02-16T08:11:59.002Z,11067
2019-02-16T08:12:29.866Z,10093
2019-02-16T08:12:59.046Z,9813
2019-02-16T08:13:29.991Z,10290
2019-02-16T08:13:59.104Z,9603
2019-02-16T08:14:30.123Z,8470
2019-02-16T08:14:59.212Z,7467
2019-02-16T08:15:30.081Z,6423
2019-02-16T08:15:59.282Z,6027
2019-02-16T08:16:30.111Z,7040
2019-02-16T08:16:59.291Z,8177
2019-02-16T08:17:30.311Z,9367
2019-02-16T08:17:59.394Z,10910
2019-02-16T08:18:30.299Z,11930
2019-02-16T08:18:59.459Z,12783
2019-02-16T08:19:30.300Z,13793
2019-02-16T08:19:59.515Z,13990
2019-02-16T08:20:30.362Z,14023
2019-02-16T08:20:59.581Z,13613
2019-02-16T08:21:30.522Z,12617
2019-02-16T08:21:59.671Z,11363
2019-02-16T08:22:30.480Z,9967
2019-02-16T08:22:59.661Z,9553
2019-02-16T08:23:30.544Z,9197
2019-02-16T08:24:00.143Z,9220
2019-02-16T08:24:30.603Z,9177
2019-02-16T08:24:59.816Z,9140
2019-02-16T08:25:30.672Z,8583
2019-02-16T08:25:59.878Z,7740
2019-02-16T08:26:30.724Z,8117
2019-02-16T08:26:59.945Z,8183
2019-02-16T08:27:30.794Z,8703
2019-02-16T08:28:00.001Z,9677
2019-02-16T08:28:31.006Z,10400
2019-02-16T08:29:00.073Z,11200
2019-02-16T08:29:30.945Z,11837
2019-02-16T08:30:00.258Z,12600
2019-02-16T08:30:31.113Z,13473
2019-02-16T08:31:00.216Z,13780
2019-02-16T08:31:31.040Z,13400
2019-02-16T08:32:00.928Z,13213
2019-02-16T08:32:31.120Z,12160
2019-02-16T08:33:01.022Z,10150
2019-02-16T08:33:31.437Z,8693
2019-02-16T08:34:01.306Z,7993
2019-02-16T08:34:31.252Z,8557
2019-02-16T08:35:00.917Z,9037
2019-02-16T08:35:31.315Z,9277
2019-02-16T08:36:01.125Z,9327
2019-02-16T08:36:31.499Z,9530
2019-02-16T08:37:01.274Z,10327
2019-02-16T08:37:31.429Z,11210
2019-02-16T08:38:00.723Z,12693
2019-02-16T08:38:31.522Z,15097
2019-02-16T08:39:01.087Z,16660
2019-02-16T08:39:31.567Z,18470
2019-02-16T08:40:01.268Z,19887
2019-02-16T08:40:31.588Z,20350
2019-02-16T08:41:01.005Z,20357
2019-02-16T08:41:31.660Z,20520
2019-02-16T08:42:00.872Z,20557
2019-02-16T08:42:31.725Z,20703
2019-02-16T08:43:01.033Z,20767
2019-02-16T08:43:31.797Z,19870
2019-02-16T08:44:01.421Z,19640
2019-02-16T08:44:31.867Z,19707
2019-02-16T08:45:01.293Z,20030
2019-02-16T08:45:31.887Z,20823
2019-02-16T08:46:01.200Z,21310
2019-02-16T08:46:31.954Z,20287
2019-02-16T08:47:01.131Z,19207
2019-02-16T08:47:32.029Z,19477
2019-02-16T08:48:01.593Z,19420
2019-02-16T08:48:32.163Z,19907
2019-02-16T08:49:01.453Z,18183
2019-02-16T08:49:32.134Z,16710
2019-02-16T08:50:01.397Z,17160
2019-02-16T08:50:32.259Z,17433
2019-02-16T08:51:01.377Z,19130
2019-02-16T08:51:32.315Z,20040
2019-02-16T08:52:01.468Z,20490
2019-02-16T08:52:32.370Z,21290
2019-02-16T08:53:01.777Z,22013
2019-02-16T08:53:32.414Z,21977
2019-02-16T08:54:01.704Z,21373
2019-02-16T08:54:32.472Z,20673
2019-02-16T08:55:01.655Z,20847
2019-02-16T08:55:32.543Z,21053
2019-02-16T08:56:01.776Z,20747
2019-02-16T08:56:32.599Z,21627
2019-02-16T08:57:01.801Z,21300
2019-02-16T08:57:32.659Z,21657
2019-02-16T08:58:01.837Z,21737
2019-02-16T08:58:32.736Z,22240
2019-02-16T08:59:01.928Z,22557
2019-02-16T08:59:32.759Z,23043
2019-02-16T09:00:02.040Z,23307
2019-02-16T09:00:32.881Z,23330
2019-02-16T09:01:02.005Z,23470
2019-02-16T09:01:32.906Z,23480
2019-02-16T09:02:02.097Z,23630
2019-02-16T09:02:32.989Z,23720
2019-02-16T09:03:02.116Z,23127
2019-02-16T09:03:33.089Z,22197
2019-02-16T09:04:02.202Z,22010
2019-02-16T09:04:33.095Z,22453
2019-02-16T09:05:02.244Z,23603
2019-02-16T09:05:33.152Z,24267
2019-02-16T09:06:02.333Z,23467
2019-02-16T09:06:33.221Z,23073
2019-02-16T09:07:02.410Z,22903
2019-02-16T09:07:33.275Z,22953
2019-02-16T09:08:02.445Z,23103
2019-02-16T09:08:33.402Z,23157
2019-02-16T09:09:02.488Z,23270
2019-02-16T09:09:33.409Z,23200
2019-02-16T09:10:02.599Z,23043
2019-02-16T09:10:33.461Z,22920
2019-02-16T09:11:02.667Z,22917
2019-02-16T09:11:33.520Z,23537
2019-02-16T09:12:02.720Z,24737
2019-02-16T09:12:33.560Z,25280
2019-02-16T09:13:02.735Z,25263
2019-02-16T09:13:33.627Z,24690
2019-02-16T09:14:02.837Z,24683
2019-02-16T09:14:33.770Z,24807
2019-02-16T09:15:02.880Z,25107
2019-02-16T09:15:33.772Z,25440
2019-02-16T09:16:02.965Z,25717
2019-02-16T09:16:35.954Z,25800
2019-02-16T09:17:02.996Z,25923
2019-02-16T09:17:33.868Z,26023
2019-02-16T09:18:03.082Z,26030
2019-02-16T09:18:34.022Z,26103
2019-02-16T09:19:03.150Z,26190
2019-02-16T09:19:34.020Z,26280
2019-02-16T09:20:03.203Z,26353
2019-02-16T09:20:34.086Z,26443
2019-02-16T09:21:03.264Z,26493
2019-02-16T09:21:34.145Z,26563
2019-02-16T09:22:03.338Z,26600
2019-02-16T09:22:34.203Z,26693
2019-02-16T09:23:03.392Z,26817
2019-02-16T09:23:34.276Z,26877
2019-02-16T09:24:03.453Z,26927
2019-02-16T09:24:34.328Z,27020
2019-02-16T09:25:03.513Z,27033
2019-02-16T09:25:34.393Z,27140
2019-02-16T09:26:03.581Z,27157
2019-02-16T09:26:34.463Z,27247
2019-02-16T09:27:03.638Z,27307
2019-02-16T09:27:34.498Z,27360
2019-02-16T09:28:03.696Z,27413
2019-02-16T09:28:34.551Z,27493
2019-02-16T09:29:03.759Z,27527
2019-02-16T09:29:34.668Z,27610
2019-02-16T09:30:03.824Z,27660
2019-02-16T09:30:34.707Z,27713
2019-02-16T09:31:03.886Z,27800
2019-02-16T09:31:34.770Z,27840
2019-02-16T09:32:03.948Z,27917
2019-02-16T09:32:34.841Z,27907
2019-02-16T09:33:04.012Z,27990
2019-02-16T09:33:34.960Z,28047
2019-02-16T09:34:04.071Z,28110
2019-02-16T09:34:34.981Z,28130
2019-02-16T09:35:04.130Z,28270
2019-02-16T09:35:34.971Z,28327
2019-02-16T09:36:04.191Z,28353
2019-02-16T09:36:35.040Z,28380
2019-02-16T09:37:04.236Z,28493
2019-02-16T09:37:35.122Z,28557
2019-02-16T09:38:04.317Z,28587
2019-02-16T09:38:35.172Z,28663
2019-02-16T09:39:04.374Z,28727
2019-02-16T09:39:35.230Z,28837
2019-02-16T09:40:04.465Z,28883
2019-02-16T09:40:35.312Z,28943
2019-02-16T09:41:04.483Z,29000
2019-02-16T09:41:35.505Z,29043
2019-02-16T09:42:04.563Z,29093
2019-02-16T09:42:35.429Z,29177
2019-02-16T09:43:04.593Z,29263
2019-02-16T09:43:35.495Z,29273
2019-02-16T09:44:04.673Z,29337
2019-02-16T09:44:35.542Z,29383
2019-02-16T09:45:04.725Z,29457
2019-02-16T09:45:35.589Z,29503
2019-02-16T09:46:04.768Z,29597
2019-02-16T09:46:35.683Z,29640
2019-02-16T09:47:04.841Z,29670
2019-02-16T09:48:04.891Z,29780
2019-02-16T09:48:35.849Z,29823
2019-02-16T09:49:04.946Z,29907
2019-02-16T09:49:35.840Z,29883
2019-02-16T09:50:05.023Z,29997
2019-02-16T09:50:35.916Z,30067
2019-02-16T09:51:05.110Z,30087
2019-02-16T09:51:36.069Z,30123
2019-02-16T09:52:05.181Z,30163
2019-02-16T09:52:36.022Z,30223
2019-02-16T09:53:05.289Z,30310
2019-02-16T09:53:36.085Z,30350
2019-02-16T09:54:08.287Z,30460
2019-02-16T09:54:36.256Z,30507
2019-02-16T09:55:05.391Z,30557
2019-02-16T09:55:36.288Z,30560
2019-02-16T09:56:05.403Z,30637
2019-02-16T09:56:36.368Z,30697
2019-02-16T09:57:05.487Z,30723
2019-02-16T09:57:36.511Z,30730
2019-02-16T09:58:05.547Z,30833
2019-02-16T09:58:36.464Z,30880
2019-02-16T09:59:05.638Z,30950
2019-02-16T09:59:36.461Z,31020
2019-02-16T10:00:05.669Z,31083
2019-02-16T10:00:36.690Z,31117
2019-02-16T10:01:05.731Z,31147
2019-02-16T10:01:37.939Z,31280
2019-02-16T10:02:05.792Z,31297
2019-02-16T10:02:37.249Z,31347
2019-02-16T10:03:05.857Z,31383
2019-02-16T10:03:37.084Z,31393
2019-02-16T10:04:05.914Z,31417
2019-02-16T10:04:37.276Z,31513
2019-02-16T10:05:05.984Z,31527
2019-02-16T10:05:37.323Z,31523
2019-02-16T10:06:06.040Z,31587
2019-02-16T10:06:37.345Z,31707
2019-02-16T10:07:06.065Z,31777
2019-02-16T10:07:37.446Z,31817
2019-02-16T10:08:06.122Z,31893
2019-02-16T10:08:37.610Z,31990
2019-02-16T10:09:06.192Z,32030
2019-02-16T10:09:37.643Z,32040
2019-02-16T10:10:06.295Z,32143
2019-02-16T10:10:37.170Z,32183
2019-02-16T10:11:06.351Z,32227
2019-02-16T10:11:37.234Z,32267
2019-02-16T10:12:06.419Z,32290
2019-02-16T10:12:37.312Z,32400
2019-02-16T10:13:06.472Z,32377
2019-02-16T10:13:37.351Z,32473
2019-02-16T10:14:06.533Z,32527
2019-02-16T10:14:37.396Z,32607
2019-02-16T10:15:07.048Z,32640
2019-02-16T10:15:37.502Z,32650
2019-02-16T10:16:06.657Z,32640
2019-02-16T10:16:37.532Z,32710
2019-02-16T10:17:06.728Z,32740
2019-02-16T10:17:37.635Z,32793
2019-02-16T10:18:06.736Z,32800
2019-02-16T10:18:37.714Z,32840
2019-02-16T10:19:06.843Z,32903
2019-02-16T10:19:37.712Z,32950
2019-02-16T10:20:06.905Z,33010
2019-02-16T10:20:37.753Z,33043
2019-02-16T10:21:06.964Z,33070
2019-02-16T10:21:37.836Z,33127
2019-02-16T10:22:07.057Z,33170
2019-02-16T10:22:37.879Z,33193
2019-02-16T10:23:07.087Z,33207
2019-02-16T10:23:37.939Z,33280
2019-02-16T10:24:07.166Z,33283
2019-02-16T10:24:38.000Z,33347
2019-02-16T10:25:07.213Z,33400
2019-02-16T10:25:38.061Z,33430
2019-02-16T10:26:07.272Z,33457
2019-02-16T10:26:38.124Z,33513
2019-02-16T10:27:07.374Z,33630
2019-02-16T10:27:38.185Z,33580
2019-02-16T10:28:07.460Z,33633
2019-02-16T10:28:38.334Z,33713
2019-02-16T10:29:07.441Z,33757
2019-02-16T10:29:38.333Z,33837
2019-02-16T10:30:07.541Z,33840
2019-02-16T10:30:38.409Z,33917
2019-02-16T10:31:07.564Z,33987
2019-02-16T10:31:38.432Z,34000
2019-02-16T10:32:07.622Z,34050
2019-02-16T10:32:38.491Z,34033
2019-02-16T10:33:07.683Z,34067
2019-02-16T10:33:38.606Z,34110
2019-02-16T10:34:07.740Z,34193
2019-02-16T10:34:38.618Z,34340
2019-02-16T10:35:07.825Z,34327
2019-02-16T10:35:38.784Z,34347
2019-02-16T10:36:07.851Z,34367
2019-02-16T10:36:38.753Z,34347
2019-02-16T10:37:07.913Z,34420
2019-02-16T10:37:38.859Z,34433
2019-02-16T10:38:38.952Z,34553
2019-02-16T10:39:08.045Z,34567
2019-02-16T10:39:39.021Z,34597
2019-02-16T10:40:08.106Z,34610
2019-02-16T10:40:39.038Z,34640
2019-02-16T10:41:08.160Z,34613
2019-02-16T10:41:39.079Z,34687
2019-02-16T10:42:08.276Z,34693
2019-02-16T10:42:39.181Z,34750
2019-02-16T10:43:08.340Z,34737
2019-02-16T10:43:39.223Z,34717
2019-02-16T10:44:08.384Z,34777
2019-02-16T10:44:39.277Z,34817
2019-02-16T10:45:08.450Z,34867
2019-02-16T10:45:39.311Z,34907
2019-02-16T10:46:08.516Z,34967
2019-02-16T10:46:39.403Z,34953
2019-02-16T10:47:08.570Z,34993
2019-02-16T10:47:39.438Z,34997
2019-02-16T10:48:08.651Z,35013
2019-02-16T10:48:39.591Z,35020
2019-02-16T10:49:08.696Z,35027
2019-02-16T10:49:39.565Z,35040
2019-02-16T10:50:08.757Z,35110
2019-02-16T10:50:39.639Z,35087
2019-02-16T10:51:08.813Z,35167
2019-02-16T10:51:39.697Z,35163
2019-02-16T10:52:08.880Z,35200
2019-02-16T10:53:08.938Z,35193
2019-02-16T10:53:39.812Z,35223
2019-02-16T10:54:09.002Z,35253
2019-02-16T10:54:39.873Z,35323
2019-02-16T10:55:09.022Z,35343
2019-02-16T10:55:39.909Z,35373
2019-02-16T10:56:09.152Z,35400
2019-02-16T10:56:40.034Z,35417
2019-02-16T10:57:09.170Z,35467
2019-02-16T10:57:40.066Z,35423
2019-02-16T10:58:09.240Z,35413
2019-02-16T10:58:40.130Z,35420
2019-02-16T10:59:09.272Z,35413
2019-02-16T10:59:40.321Z,35457
2019-02-16T11:00:09.373Z,35483
2019-02-16T11:00:40.299Z,35540
2019-02-16T11:01:09.434Z,35517
2019-02-16T11:01:40.308Z,35563
2019-02-16T11:02:09.496Z,35580
2019-02-16T11:02:40.373Z,35587
2019-02-16T11:03:09.559Z,35633
2019-02-16T11:03:40.684Z,35627
2019-02-16T11:04:15.388Z,35657
2019-02-16T11:04:45.405Z,35610
2019-02-16T11:05:15.444Z,35690
2019-02-16T11:05:45.466Z,35680
2019-02-16T11:06:15.510Z,35687
2019-02-16T11:06:45.539Z,35733
2019-02-16T11:07:17.289Z,35700
2019-02-16T11:07:45.596Z,35707
2019-02-16T11:08:15.628Z,35797
2019-02-16T11:08:45.657Z,35833
2019-02-16T11:09:15.661Z,35820
2019-02-16T11:09:45.710Z,35857
2019-02-16T11:10:15.757Z,35800
2019-02-16T11:10:45.800Z,35843
2019-02-16T11:11:45.839Z,35840
2019-02-16T11:12:45.900Z,35847
2019-02-16T11:13:15.940Z,35817
2019-02-16T11:13:45.970Z,35833
2019-02-16T11:14:16.005Z,35913
2019-02-16T11:14:46.022Z,35890
2019-02-16T11:15:16.063Z,35923
2019-02-16T11:15:46.086Z,35893
2019-02-16T11:16:16.123Z,35830
2019-02-16T11:16:46.171Z,35817
2019-02-16T11:17:16.185Z,35843
2019-02-16T11:17:46.252Z,35853
2019-02-16T11:18:16.251Z,35860
2019-02-16T11:18:46.367Z,35833
2019-02-16T11:19:16.310Z,35840
2019-02-16T11:19:46.346Z,35830
2019-02-16T11:20:46.465Z,35847
2019-02-16T11:21:16.495Z,35873
2019-02-16T11:21:46.488Z,35897
2019-02-16T11:22:46.513Z,35873
2019-02-16T11:23:16.544Z,35843
2019-02-16T11:23:46.633Z,35830
2019-02-16T11:24:16.616Z,35840
2019-02-16T11:24:46.621Z,35793
2019-02-16T11:25:16.689Z,35807
2019-02-16T11:25:46.679Z,35820
2019-02-16T11:26:16.776Z,35770
2019-02-16T11:26:46.737Z,35757
2019-02-16T11:27:16.780Z,35740
2019-02-16T11:27:46.805Z,35743
2019-02-16T11:28:16.838Z,35727
2019-02-16T11:28:46.865Z,35743
2019-02-16T11:29:16.913Z,35767
2019-02-16T11:29:46.968Z,35777
2019-02-16T11:30:16.949Z,35820
2019-02-16T11:30:46.986Z,35790
2019-02-16T11:31:17.025Z,35733
2019-02-16T11:31:47.105Z,35727
2019-02-16T11:32:17.070Z,35750
2019-02-16T11:32:47.107Z,35700
2019-02-16T11:33:17.177Z,35680
2019-02-16T11:33:47.242Z,35677
2019-02-16T11:34:17.231Z,35670
2019-02-16T11:34:47.310Z,35687
2019-02-16T11:35:17.307Z,35677
2019-02-16T11:35:47.301Z,35637
2019-02-16T11:36:17.378Z,35660
2019-02-16T11:36:47.386Z,35640
2019-02-16T11:37:17.447Z,35647
2019-02-16T11:37:47.461Z,35623
2019-02-16T11:38:17.483Z,35627
2019-02-16T11:38:47.568Z,35623
2019-02-16T11:39:17.538Z,35607
2019-02-16T11:39:47.607Z,35573
2019-02-16T11:40:17.636Z,35580
2019-02-16T11:40:47.665Z,35627
2019-02-16T11:41:19.085Z,35587
2019-02-16T11:41:47.712Z,35533
2019-02-16T11:42:17.777Z,35523
2019-02-16T11:42:47.753Z,35543
2019-02-16T11:43:17.753Z,35483
2019-02-16T11:43:47.849Z,35443
2019-02-16T11:44:17.838Z,35413
2019-02-16T11:44:47.907Z,35423
2019-02-16T11:45:17.901Z,35413
2019-02-16T11:45:47.941Z,35407
2019-02-16T11:46:18.003Z,35303
2019-02-16T11:46:48.029Z,35300
2019-02-16T11:47:18.028Z,35257
2019-02-16T11:47:48.089Z,35300
2019-02-16T11:48:18.130Z,35237
2019-02-16T11:48:48.198Z,35213
2019-02-16T11:49:18.187Z,35193
2019-02-16T11:50:18.185Z,35200
2019-02-16T11:50:48.258Z,35210
2019-02-16T11:51:18.313Z,35160
2019-02-16T11:51:48.340Z,35067
2019-02-16T11:52:18.377Z,35083
2019-02-16T11:52:48.404Z,35043
2019-02-16T11:53:18.434Z,34973
2019-02-16T11:53:48.406Z,34997
2019-02-16T11:54:18.570Z,34903
2019-02-16T11:54:48.479Z,34927
2019-02-16T11:55:18.585Z,34950
2019-02-16T11:55:48.533Z,34993
2019-02-16T11:56:18.626Z,34913
2019-02-16T11:56:48.598Z,34970
2019-02-16T11:57:18.759Z,34927
2019-02-16T11:57:48.729Z,34857
2019-02-16T11:58:18.778Z,34853
2019-02-16T11:58:48.719Z,34860
2019-02-16T11:59:18.837Z,34837
2019-02-16T11:59:48.783Z,34833
2019-02-16T12:00:18.873Z,34817
2019-02-16T12:00:48.842Z,34777
2019-02-16T12:01:18.952Z,34760
2019-02-16T12:01:48.930Z,34727
2019-02-16T12:02:18.955Z,34690
2019-02-16T12:02:48.962Z,34673
2019-02-16T12:03:19.250Z,34647
2019-02-16T12:03:49.280Z,34610
2019-02-16T12:04:19.143Z,34613
2019-02-16T12:04:49.094Z,34610
2019-02-16T12:05:19.195Z,34560
2019-02-16T12:05:49.153Z,34540
2019-02-16T12:06:19.232Z,34507
2019-02-16T12:06:49.296Z,34430
2019-02-16T12:07:19.298Z,34410
2019-02-16T12:07:49.488Z,34360
2019-02-16T12:08:19.361Z,34380
2019-02-16T12:08:49.341Z,34297
2019-02-16T12:09:19.417Z,34307
2019-02-16T12:09:49.408Z,34313
2019-02-16T12:10:19.461Z,34187
2019-02-16T12:10:49.464Z,34210
2019-02-16T12:11:19.526Z,34187
2019-02-16T12:11:49.588Z,34103
2019-02-16T12:12:19.614Z,34140
2019-02-16T12:12:49.616Z,34073
2019-02-16T12:13:19.609Z,34037
2019-02-16T12:13:49.657Z,34020
2019-02-16T12:14:19.691Z,33963
2019-02-16T12:14:49.726Z,33913
2019-02-16T12:15:19.736Z,33920
2019-02-16T12:15:49.787Z,33847
2019-02-16T12:16:19.803Z,33880
2019-02-16T12:16:49.832Z,33793
2019-02-16T12:17:19.865Z,33740
2019-02-16T12:17:49.899Z,33713
2019-02-16T12:18:19.939Z,33650
2019-02-16T12:18:49.959Z,33623
2019-02-16T12:19:19.979Z,33667
2019-02-16T12:19:50.009Z,33603
2019-02-16T12:20:20.044Z,33543
2019-02-16T12:20:50.103Z,33557
2019-02-16T12:21:20.145Z,33513
2019-02-16T12:21:50.312Z,33500
2019-02-16T12:22:20.209Z,33487
2019-02-16T12:22:50.231Z,33443
2019-02-16T12:23:20.254Z,33407
2019-02-16T12:23:50.303Z,33370
2019-02-16T12:24:20.349Z,33307
2019-02-16T12:25:03.191Z,33260
2019-02-16T12:25:20.352Z,33240
2019-02-16T12:25:50.382Z,33127
2019-02-16T12:26:20.443Z,33087
2019-02-16T12:26:50.496Z,33073
2019-02-16T12:27:20.470Z,33067
2019-02-16T12:27:50.541Z,33020
2019-02-16T12:28:21.548Z,32973
2019-02-16T12:28:50.630Z,32957
2019-02-16T12:29:20.640Z,32930
2019-02-16T12:29:50.624Z,32893
2019-02-16T12:30:20.665Z,32823
2019-02-16T12:30:50.701Z,32830
2019-02-16T12:31:20.727Z,32763
2019-02-16T12:31:50.766Z,32773
2019-02-16T12:32:20.815Z,32717
2019-02-16T12:32:50.816Z,32670
2019-02-16T12:33:20.919Z,32620
2019-02-16T12:33:50.988Z,32553
2019-02-16T12:34:20.917Z,32497
2019-02-16T12:34:50.979Z,32407
2019-02-16T12:35:21.030Z,32413
2019-02-16T12:35:51.078Z,32397
2019-02-16T12:36:21.970Z,32337
2019-02-16T12:36:51.101Z,32293
2019-02-16T12:37:21.182Z,32287
2019-02-16T12:37:51.133Z,32257
2019-02-16T12:38:21.249Z,32230
2019-02-16T12:38:51.236Z,32197
2019-02-16T12:39:21.283Z,32117
2019-02-16T12:39:51.326Z,32060
2019-02-16T12:40:21.345Z,32017
2019-02-16T12:40:51.352Z,31973
2019-02-16T12:41:21.403Z,31960
2019-02-16T12:41:51.411Z,31860
2019-02-16T12:42:21.492Z,31897
2019-02-16T12:42:51.482Z,31820
2019-02-16T12:43:21.553Z,31710
2019-02-16T12:43:51.543Z,31667
2019-02-16T12:44:21.608Z,31603
2019-02-16T12:44:51.607Z,31583
2019-02-16T12:45:51.660Z,31587
2019-02-16T12:46:21.710Z,31530
2019-02-16T12:46:51.722Z,31480
2019-02-16T12:47:21.766Z,31410
2019-02-16T12:47:51.749Z,31380
2019-02-16T12:48:21.832Z,31207
2019-02-16T12:48:51.869Z,31270
2019-02-16T12:49:21.957Z,31213
2019-02-16T12:49:51.908Z,31127
2019-02-16T12:50:21.952Z,31130
2019-02-16T12:50:51.970Z,31090
2019-02-16T12:51:22.010Z,31017
2019-02-16T12:51:52.027Z,31020
2019-02-16T12:52:22.103Z,31087
2019-02-16T12:52:52.097Z,30947
2019-02-16T12:53:22.162Z,30953
2019-02-16T12:53:52.160Z,30937
2019-02-16T12:54:22.162Z,30917
2019-02-16T12:54:52.231Z,30853
2019-02-16T12:55:22.284Z,30823
2019-02-16T12:55:52.290Z,30780
2019-02-16T12:56:22.278Z,30727
2019-02-16T12:56:52.344Z,30640
2019-02-16T12:57:22.358Z,30550
2019-02-16T12:57:52.413Z,30493
2019-02-16T12:58:22.412Z,30453
2019-02-16T12:58:52.475Z,30443
2019-02-16T12:59:22.479Z,30333
2019-02-16T12:59:52.492Z,30277
2019-02-16T13:00:22.519Z,30213
2019-02-16T13:00:52.598Z,30100
2019-02-16T13:01:22.579Z,30023
2019-02-16T13:01:52.638Z,30003
2019-02-16T13:02:24.607Z,30027
2019-02-16T13:02:52.666Z,29917
2019-02-16T13:03:22.755Z,29910
2019-02-16T13:03:52.752Z,29823
2019-02-16T13:04:22.770Z,29750
2019-02-16T13:04:52.792Z,29733
2019-02-16T13:05:22.826Z,29657
2019-02-16T13:05:52.853Z,29547
2019-02-16T13:06:22.880Z,29523
2019-02-16T13:06:52.924Z,29460
2019-02-16T13:07:22.945Z,29390
2019-02-16T13:07:52.975Z,29347
2019-02-16T13:08:23.014Z,29273
2019-02-16T13:08:53.052Z,29210
2019-02-16T13:09:23.108Z,29213
2019-02-16T13:09:53.143Z,29130
2019-02-16T13:10:23.173Z,29127
2019-02-16T13:10:53.245Z,29103
2019-02-16T13:11:53.249Z,29073
2019-02-16T13:12:23.311Z,29033
2019-02-16T13:12:53.360Z,28943
2019-02-16T13:13:23.332Z,28847
2019-02-16T13:13:53.386Z,28853
2019-02-16T13:14:23.420Z,28773
2019-02-16T13:14:53.450Z,28733
2019-02-16T13:15:23.490Z,28720
2019-02-16T13:15:53.518Z,28640
2019-02-16T13:16:23.554Z,28643
2019-02-16T13:16:53.559Z,28590
2019-02-16T13:17:23.658Z,28547
2019-02-16T13:17:53.605Z,28463
2019-02-16T13:18:23.710Z,28447
2019-02-16T13:18:53.770Z,28380
2019-02-16T13:19:23.994Z,28297
2019-02-16T13:19:53.792Z,28213
2019-02-16T13:20:23.828Z,28170
2019-02-16T13:20:53.813Z,28137
2019-02-16T13:21:23.871Z,28070
2019-02-16T13:21:53.875Z,28003
2019-02-16T13:22:23.909Z,27937
2019-02-16T13:22:53.924Z,27827
2019-02-16T13:23:24.017Z,27713
2019-02-16T13:23:54.025Z,27580
2019-02-16T13:24:24.030Z,27460
2019-02-16T13:24:54.065Z,27267